createdAt,value
2017-11-26T00:01:52.722Z,15.90
2017-11-26T00:04:20.495Z,15.70
2017-11-26T00:06:48.290Z,16.10
2017-11-26T00:09:16.118Z,16.00
2017-11-26T00:11:43.936Z,16.00
2017-11-26T00:14:11.702Z,16.00
2017-11-26T00:16:39.529Z,15.90
2017-11-26T00:19:07.364Z,16.30
2017-11-26T00:21:35.194Z,16.10
2017-11-26T00:24:03.099Z,16.00
2017-11-26T00:26:30.936Z,15.80
2017-11-26T00:28:58.753Z,15.60
2017-11-26T00:31:26.632Z,15.30
2017-11-26T00:33:54.403Z,15.10
2017-11-26T00:36:22.151Z,15.20
2017-11-26T00:38:50.012Z,15.20
2017-11-26T00:41:17.832Z,15.30
2017-11-26T00:43:45.623Z,15.20
2017-11-26T00:46:13.437Z,15.10
2017-11-26T00:48:41.272Z,15.10
2017-11-26T00:51:09.074Z,15.30
2017-11-26T00:53:36.949Z,15.40
2017-11-26T00:56:04.770Z,15.60
2017-11-26T00:58:32.549Z,15.80
2017-11-26T01:01:01.169Z,16.70
2017-11-26T01:03:28.997Z,16.60
2017-11-26T01:05:56.752Z,16.60
2017-11-26T01:08:24.553Z,16.20
2017-11-26T01:10:52.324Z,16.60
2017-11-26T01:13:20.094Z,16.30
2017-11-26T01:15:48.013Z,16.50
2017-11-26T01:18:15.763Z,16.70
2017-11-26T01:20:44.334Z,16.50
2017-11-26T01:23:12.131Z,16.40
2017-11-26T01:25:39.900Z,16.10
2017-11-26T01:28:07.696Z,15.80
2017-11-26T01:30:35.520Z,15.80
2017-11-26T01:33:04.131Z,15.70
2017-11-26T01:35:31.966Z,15.60
2017-11-26T01:38:00.477Z,15.90
2017-11-26T01:40:28.421Z,15.80
2017-11-26T01:42:56.952Z,15.80
2017-11-26T01:45:24.775Z,15.80
2017-11-26T01:47:52.531Z,16.00
2017-11-26T01:50:20.308Z,15.80
2017-11-26T01:52:48.099Z,16.00
2017-11-26T01:55:16.733Z,16.20
2017-11-26T01:57:44.569Z,16.10
2017-11-26T02:00:12.439Z,16.20
2017-11-26T02:02:40.289Z,16.10
2017-11-26T02:05:08.055Z,16.40
2017-11-26T02:07:35.862Z,16.30
2017-11-26T02:10:03.651Z,16.60
2017-11-26T02:12:31.440Z,16.60
2017-11-26T02:14:59.214Z,16.30
2017-11-26T02:17:27.079Z,15.80
2017-11-26T02:19:55.737Z,15.70
2017-11-26T02:22:23.678Z,15.70
2017-11-26T02:24:51.538Z,15.60
2017-11-26T02:27:19.371Z,15.80
2017-11-26T02:29:47.954Z,16.80
2017-11-26T02:32:27.449Z,16.70
2017-11-26T02:35:07.166Z,16.90
2017-11-26T02:37:34.946Z,17.20
2017-11-26T02:40:02.767Z,16.70
2017-11-26T02:42:30.669Z,16.70
2017-11-26T02:44:58.479Z,16.30
2017-11-26T02:47:26.306Z,16.20
2017-11-26T02:49:54.168Z,16.20
2017-11-26T02:52:22.017Z,16.30
2017-11-26T02:54:49.829Z,16.20
2017-11-26T02:57:17.753Z,16.30
2017-11-26T02:59:46.341Z,16.30
2017-11-26T03:02:14.164Z,16.30
2017-11-26T03:04:41.952Z,16.60
2017-11-26T03:07:09.801Z,17.10
2017-11-26T03:09:37.632Z,17.00
2017-11-26T03:12:05.442Z,17.20
2017-11-26T03:14:33.266Z,17.50
2017-11-26T03:17:01.061Z,17.80
2017-11-26T03:19:28.967Z,17.90
2017-11-26T03:21:56.830Z,18.20
2017-11-26T03:24:24.661Z,18.60
2017-11-26T03:26:52.587Z,18.70
2017-11-26T03:29:20.461Z,18.60
2017-11-26T03:31:48.301Z,18.70
2017-11-26T03:34:16.176Z,18.80
2017-11-26T03:36:43.940Z,19.00
2017-11-26T03:39:11.719Z,19.00
2017-11-26T03:41:39.602Z,18.90
2017-11-26T03:44:07.418Z,18.70
2017-11-26T03:46:35.220Z,18.80
2017-11-26T03:49:03.087Z,18.80
2017-11-26T03:51:30.979Z,18.60
2017-11-26T03:53:58.812Z,18.20
2017-11-26T03:56:26.718Z,18.20
2017-11-26T03:58:54.553Z,18.50
2017-11-26T04:01:22.375Z,18.50
2017-11-26T04:03:50.301Z,18.70
2017-11-26T04:06:18.057Z,18.90
2017-11-26T04:08:45.875Z,19.00
2017-11-26T04:11:13.778Z,19.00
2017-11-26T04:13:41.585Z,19.00
2017-11-26T04:16:10.241Z,19.10
2017-11-26T04:18:38.101Z,19.00
2017-11-26T04:21:05.943Z,19.10
2017-11-26T04:23:33.783Z,19.10
2017-11-26T04:26:01.570Z,19.10
2017-11-26T04:28:29.320Z,19.00
2017-11-26T04:30:57.117Z,19.00
2017-11-26T04:33:24.880Z,18.90
2017-11-26T04:35:52.684Z,19.00
2017-11-26T04:38:20.490Z,19.00
2017-11-26T04:40:49.056Z,19.00
2017-11-26T04:43:16.868Z,18.90
2017-11-26T04:45:44.725Z,18.90
2017-11-26T04:48:13.333Z,19.00
2017-11-26T04:50:41.104Z,19.00
2017-11-26T04:53:08.896Z,19.10
2017-11-26T04:55:36.778Z,19.10
2017-11-26T04:58:04.591Z,19.20
2017-11-26T05:00:32.505Z,19.30
2017-11-26T05:03:00.302Z,19.30
2017-11-26T05:05:29.056Z,19.50
2017-11-26T05:07:56.868Z,19.40
2017-11-26T05:10:24.687Z,19.60
2017-11-26T05:12:52.533Z,19.60
2017-11-26T05:15:20.415Z,19.70
2017-11-26T05:17:48.224Z,19.80
2017-11-26T05:20:16.042Z,19.90
2017-11-26T05:22:44.013Z,20.00
2017-11-26T05:25:11.804Z,20.00
2017-11-26T05:27:39.564Z,20.10
2017-11-26T05:30:07.417Z,20.20
2017-11-26T05:32:35.238Z,20.30
2017-11-26T05:35:03.309Z,20.40
2017-11-26T05:37:31.194Z,20.40
2017-11-26T05:39:59.804Z,20.60
2017-11-26T05:42:27.610Z,20.50
2017-11-26T05:44:55.438Z,20.60
2017-11-26T05:47:23.199Z,20.70
2017-11-26T05:49:50.968Z,20.80
2017-11-26T05:52:18.767Z,20.90
2017-11-26T05:54:46.535Z,21.00
2017-11-26T05:57:14.313Z,21.00
2017-11-26T05:59:42.226Z,21.10
2017-11-26T06:02:09.971Z,21.20
2017-11-26T06:04:37.814Z,21.20
2017-11-26T06:07:05.550Z,21.30
2017-11-26T06:09:33.374Z,21.40
2017-11-26T06:12:01.180Z,21.40
2017-11-26T06:14:28.993Z,21.50
2017-11-26T06:16:56.813Z,21.60
2017-11-26T06:19:24.614Z,21.60
2017-11-26T06:21:52.446Z,21.70
2017-11-26T06:24:20.212Z,21.70
2017-11-26T06:26:48.033Z,21.80
2017-11-26T06:29:15.797Z,21.90
2017-11-26T06:31:43.576Z,21.80
2017-11-26T06:34:11.491Z,21.60
2017-11-26T06:36:39.316Z,21.30
2017-11-26T06:39:07.114Z,20.90
2017-11-26T06:41:34.924Z,20.40
2017-11-26T06:44:02.726Z,20.00
2017-11-26T06:46:31.311Z,19.00
2017-11-26T06:48:59.075Z,18.90
2017-11-26T06:51:27.042Z,18.30
2017-11-26T06:53:54.857Z,18.50
2017-11-26T06:56:22.632Z,18.00
2017-11-26T06:58:50.578Z,17.80
2017-11-26T07:01:18.358Z,17.70
2017-11-26T07:03:47.467Z,17.70
2017-11-26T07:06:15.229Z,18.50
2017-11-26T07:08:43.001Z,18.90
2017-11-26T07:11:10.796Z,19.40
2017-11-26T07:13:38.672Z,18.60
2017-11-26T07:16:06.527Z,16.70
2017-11-26T07:18:34.292Z,17.40
2017-11-26T07:21:02.183Z,17.10
2017-11-26T07:23:30.011Z,17.80
2017-11-26T07:25:57.848Z,18.50
2017-11-26T07:28:26.788Z,19.30
2017-11-26T07:30:54.580Z,19.20
2017-11-26T07:33:22.377Z,19.50
2017-11-26T07:35:50.218Z,20.20
2017-11-26T07:38:18.009Z,20.90
2017-11-26T07:40:45.844Z,21.30
2017-11-26T07:43:13.659Z,21.70
2017-11-26T07:45:41.458Z,21.60
2017-11-26T07:48:09.244Z,21.70
2017-11-26T07:50:37.036Z,21.90
2017-11-26T07:53:05.643Z,22.20
2017-11-26T07:55:33.436Z,22.10
2017-11-26T07:58:01.159Z,22.20
2017-11-26T08:00:28.985Z,22.30
2017-11-26T08:02:57.049Z,22.30
2017-11-26T08:05:24.859Z,22.40
2017-11-26T08:07:52.710Z,22.30
2017-11-26T08:10:20.822Z,22.40
2017-11-26T08:12:48.677Z,22.40
2017-11-26T08:15:16.473Z,22.50
2017-11-26T08:17:44.286Z,22.50
2017-11-26T08:20:12.083Z,22.50
2017-11-26T08:22:40.680Z,22.60
2017-11-26T08:25:08.624Z,22.60
2017-11-26T08:27:36.431Z,22.50
2017-11-26T08:30:05.200Z,22.40
2017-11-26T08:32:34.983Z,22.30
2017-11-26T08:35:02.901Z,22.30
2017-11-26T08:37:30.692Z,22.40
2017-11-26T08:39:58.624Z,21.90
2017-11-26T08:42:26.743Z,22.00
2017-11-26T08:44:57.812Z,22.00
2017-11-26T08:47:26.023Z,21.20
2017-11-26T08:49:57.100Z,20.80
2017-11-26T08:52:25.061Z,20.80
2017-11-26T08:54:53.002Z,21.10
2017-11-26T08:57:21.348Z,21.80
2017-11-26T08:59:50.012Z,21.50
2017-11-26T09:02:18.261Z,21.50
2017-11-26T09:04:46.353Z,21.40
2017-11-26T09:07:14.343Z,21.50
2017-11-26T09:09:42.157Z,21.70
2017-11-26T09:12:10.092Z,21.80
2017-11-26T09:17:58.867Z,19.50
2017-11-26T09:20:27.732Z,19.80
2017-11-26T09:22:55.925Z,20.00
2017-11-26T09:25:24.832Z,21.10
2017-11-26T09:27:54.416Z,21.00
2017-11-26T09:30:22.628Z,21.30
2017-11-26T09:32:50.525Z,21.40
2017-11-26T09:35:18.374Z,21.20
2017-11-26T09:37:47.034Z,21.30
2017-11-26T09:40:15.835Z,20.90
2017-11-26T09:42:44.623Z,20.40
2017-11-26T09:48:09.646Z,20.60
2017-11-26T09:53:44.214Z,20.80
2017-11-26T09:56:13.356Z,20.90
2017-11-26T09:58:45.024Z,20.90
2017-11-26T10:01:24.657Z,20.90
2017-11-26T10:04:04.637Z,20.80
2017-11-26T10:06:35.870Z,21.00
2017-11-26T10:09:03.967Z,21.10
2017-11-26T10:19:46.859Z,21.10
2017-11-26T10:22:22.666Z,21.10
2017-11-26T10:24:50.857Z,21.10
2017-11-26T10:27:19.053Z,21.10
2017-11-26T10:29:47.035Z,21.00
2017-11-26T10:32:15.859Z,20.90
2017-11-26T10:34:43.776Z,21.10
2017-11-26T10:37:11.609Z,21.20
2017-11-26T10:39:39.567Z,21.30
2017-11-26T10:42:07.544Z,21.30
2017-11-26T10:44:35.396Z,21.30
2017-11-26T10:47:03.380Z,21.00
2017-11-26T10:49:31.345Z,21.30
2017-11-26T10:51:59.372Z,21.30
2017-11-26T10:54:27.396Z,21.50
2017-11-26T10:56:55.703Z,21.60
2017-11-26T10:59:23.773Z,21.60
2017-11-26T11:01:52.567Z,21.60
2017-11-26T11:04:20.394Z,21.50
2017-11-26T11:06:48.523Z,21.60
2017-11-26T11:09:16.545Z,21.50
2017-11-26T11:11:44.396Z,21.50
2017-11-26T11:14:12.324Z,21.60
2017-11-26T11:16:40.993Z,21.60
2017-11-26T11:19:08.765Z,21.60
2017-11-26T11:21:36.635Z,21.60
2017-11-26T11:24:10.066Z,21.40
2017-11-26T11:26:39.628Z,21.40
2017-11-26T11:29:07.528Z,21.50
2017-11-26T11:31:35.346Z,21.60
2017-11-26T11:34:03.181Z,21.50
2017-11-26T11:36:31.860Z,21.40
2017-11-26T11:38:59.614Z,21.30
2017-11-26T11:41:28.207Z,21.30
2017-11-26T11:43:55.960Z,21.30
2017-11-26T11:46:23.762Z,21.30
2017-11-26T11:48:51.780Z,21.40
2017-11-26T11:51:19.616Z,21.40
2017-11-26T11:53:47.484Z,21.30
2017-11-26T11:56:15.354Z,21.30
2017-11-26T11:58:43.217Z,21.30
2017-11-26T12:01:11.972Z,21.40
2017-11-26T12:03:39.884Z,21.30
2017-11-26T12:06:07.674Z,21.40
2017-11-26T12:08:35.553Z,21.40
2017-11-26T12:11:03.458Z,21.40
2017-11-26T12:13:31.352Z,21.40
2017-11-26T12:16:00.354Z,21.30
2017-11-26T12:18:28.192Z,21.30
2017-11-26T12:20:55.958Z,21.40
2017-11-26T12:23:23.814Z,21.40
2017-11-26T12:25:51.624Z,21.40
2017-11-26T12:28:19.456Z,21.40
2017-11-26T12:30:47.237Z,21.50
2017-11-26T12:33:15.173Z,21.60
2017-11-26T12:35:43.019Z,21.40
2017-11-26T12:38:10.789Z,21.20
2017-11-26T12:40:38.637Z,21.10
2017-11-26T12:43:06.497Z,21.40
2017-11-26T12:45:34.403Z,21.40
2017-11-26T12:48:02.424Z,21.70
2017-11-26T12:50:30.420Z,21.70
2017-11-26T12:52:58.219Z,21.70
2017-11-26T12:55:26.064Z,21.80
2017-11-26T12:57:53.921Z,21.90
2017-11-26T13:00:21.779Z,21.90
2017-11-26T13:02:49.783Z,21.90
2017-11-26T13:05:17.627Z,22.00
2017-11-26T13:07:46.643Z,21.80
2017-11-26T13:10:15.953Z,21.80
2017-11-26T13:12:43.795Z,21.80
2017-11-26T13:15:11.841Z,21.80
2017-11-26T13:17:39.746Z,21.80
2017-11-26T13:20:07.660Z,21.80
2017-11-26T13:22:35.477Z,21.80
2017-11-26T13:25:04.441Z,21.70
2017-11-26T13:27:32.200Z,21.60
2017-11-26T13:30:00.050Z,21.70
2017-11-26T13:32:27.909Z,21.60
2017-11-26T13:34:55.788Z,21.60
2017-11-26T13:37:23.607Z,21.80
2017-11-26T13:39:51.521Z,21.80
2017-11-26T13:42:20.146Z,21.90
2017-11-26T13:44:47.994Z,21.80
2017-11-26T13:47:16.699Z,22.10
2017-11-26T13:49:44.504Z,22.10
2017-11-26T13:52:12.310Z,22.20
2017-11-26T13:54:40.267Z,22.10
2017-11-26T13:57:08.065Z,22.10
2017-11-26T13:59:36.612Z,22.10
2017-11-26T14:02:04.458Z,22.10
2017-11-26T14:04:32.303Z,22.10
2017-11-26T14:07:00.195Z,22.10
2017-11-26T14:09:28.109Z,22.10
2017-11-26T14:11:56.005Z,22.10
2017-11-26T14:14:23.820Z,22.10
2017-11-26T14:16:51.739Z,22.20
2017-11-26T14:19:19.595Z,22.10
2017-11-26T14:21:57.350Z,22.10
2017-11-26T14:24:26.509Z,22.10
2017-11-26T14:26:54.413Z,22.00
2017-11-26T14:29:22.307Z,22.00
2017-11-26T14:31:51.378Z,22.10
2017-11-26T14:34:22.044Z,22.10
2017-11-26T14:39:27.506Z,21.90
2017-11-26T14:41:55.497Z,21.90
2017-11-26T14:44:24.408Z,21.90
2017-11-26T14:46:52.273Z,21.90
2017-11-26T14:49:20.915Z,21.90
2017-11-26T14:51:49.451Z,21.80
2017-11-26T14:54:17.461Z,21.90
2017-11-26T14:56:45.336Z,22.00
2017-11-26T14:59:13.123Z,22.00
2017-11-26T15:01:52.387Z,22.00
2017-11-26T15:04:21.441Z,21.90
2017-11-26T15:06:49.610Z,22.00
2017-11-26T15:09:18.284Z,22.10
2017-11-26T15:11:46.279Z,22.00
2017-11-26T15:14:14.278Z,22.00
2017-11-26T15:16:42.224Z,22.00
2017-11-26T15:19:10.122Z,22.10
2017-11-26T15:21:37.963Z,22.20
2017-11-26T15:24:05.826Z,22.20
2017-11-26T15:26:33.808Z,22.10
2017-11-26T15:29:02.037Z,22.10
2017-11-26T15:31:29.915Z,22.10
2017-11-26T15:33:57.945Z,22.00
2017-11-26T15:36:26.619Z,22.00
2017-11-26T15:38:54.414Z,22.00
2017-11-26T15:41:23.051Z,22.00
2017-11-26T15:43:50.903Z,22.00
2017-11-26T15:46:18.690Z,21.70
2017-11-26T15:48:46.507Z,20.70
2017-11-26T15:51:14.354Z,20.90
2017-11-26T15:53:42.306Z,20.70
2017-11-26T15:56:10.155Z,21.20
2017-11-26T15:58:38.013Z,20.90
2017-11-26T16:01:06.030Z,20.30
2017-11-26T16:03:33.864Z,20.20
2017-11-26T16:06:01.756Z,20.10
2017-11-26T16:08:30.465Z,21.00
2017-11-26T16:10:58.323Z,20.90
2017-11-26T16:13:26.190Z,21.30
2017-11-26T16:15:54.039Z,21.60
2017-11-26T16:18:21.848Z,21.40
2017-11-26T16:20:49.718Z,21.60
2017-11-26T16:23:18.361Z,21.70
2017-11-26T16:25:46.219Z,21.60
2017-11-26T16:28:14.023Z,21.90
2017-11-26T16:30:41.932Z,22.00
2017-11-26T16:33:09.965Z,21.90
2017-11-26T16:35:37.878Z,22.00
2017-11-26T16:38:05.900Z,21.80
2017-11-26T16:40:33.781Z,21.90
2017-11-26T16:43:01.678Z,22.00
2017-11-26T16:45:30.262Z,22.00
2017-11-26T16:47:58.143Z,22.00
2017-11-26T16:50:26.450Z,21.90
2017-11-26T16:52:54.465Z,21.80
2017-11-26T16:55:22.348Z,21.90
2017-11-26T16:57:51.313Z,22.00
2017-11-26T17:00:20.520Z,22.00
2017-11-26T17:02:48.354Z,22.10
2017-11-26T17:05:16.776Z,22.10
2017-11-26T17:07:44.626Z,22.20
2017-11-26T17:10:12.492Z,22.20
2017-11-26T17:12:40.672Z,22.10
2017-11-26T17:15:08.485Z,22.10
2017-11-26T17:17:37.115Z,22.20
2017-11-26T17:20:04.925Z,22.10
2017-11-26T17:22:33.682Z,22.10
2017-11-26T17:25:01.549Z,22.10
2017-11-26T17:27:30.686Z,21.20
2017-11-26T17:29:58.526Z,20.50
2017-11-26T17:32:26.430Z,21.10
2017-11-26T17:34:54.309Z,21.20
2017-11-26T17:37:22.138Z,21.50
2017-11-26T17:39:50.020Z,21.50
2017-11-26T17:42:18.066Z,21.80
2017-11-26T17:44:45.979Z,20.70
2017-11-26T17:47:14.605Z,20.80
2017-11-26T17:49:42.543Z,20.80
2017-11-26T17:52:10.335Z,21.30
2017-11-26T17:54:38.248Z,21.40
2017-11-26T17:57:06.083Z,21.70
2017-11-26T17:59:33.950Z,22.10
2017-11-26T18:02:01.846Z,21.50
2017-11-26T18:04:29.732Z,22.00
2017-11-26T18:06:57.626Z,22.10
2017-11-26T18:09:25.391Z,22.20
2017-11-26T18:12:08.159Z,22.20
2017-11-26T18:14:36.124Z,22.30
2017-11-26T18:17:04.054Z,22.30
2017-11-26T18:19:31.912Z,22.20
2017-11-26T18:22:00.546Z,22.30
2017-11-26T18:24:28.438Z,22.30
2017-11-26T18:26:57.287Z,22.10
2017-11-26T18:29:26.206Z,22.10
2017-11-26T18:31:54.134Z,21.70
2017-11-26T18:34:22.063Z,21.20
2017-11-26T18:36:50.053Z,21.40
2017-11-26T18:39:17.925Z,21.70
2017-11-26T18:41:46.330Z,21.80
2017-11-26T18:44:15.787Z,21.80
2017-11-26T18:46:46.108Z,21.80
2017-11-26T18:49:15.433Z,21.80
2017-11-26T18:51:44.642Z,21.90
2017-11-26T18:54:18.254Z,21.80
2017-11-26T18:56:47.923Z,21.80
2017-11-26T18:59:15.989Z,21.80
2017-11-26T19:01:43.841Z,21.70
2017-11-26T19:04:11.818Z,21.70
2017-11-26T19:06:39.649Z,21.60
2017-11-26T19:09:07.534Z,21.70
2017-11-26T19:11:35.423Z,21.70
2017-11-26T19:14:03.788Z,21.70
2017-11-26T19:16:31.746Z,21.60
2017-11-26T19:18:59.754Z,21.60
2017-11-26T19:21:27.657Z,21.60
2017-11-26T19:23:55.434Z,21.60
2017-11-26T19:26:23.308Z,21.60
2017-11-26T19:28:51.172Z,21.50
2017-11-26T19:31:18.958Z,21.60
2017-11-26T19:33:47.726Z,21.60
2017-11-26T19:36:15.528Z,21.50
2017-11-26T19:38:43.409Z,21.60
2017-11-26T19:41:11.430Z,21.60
2017-11-26T19:43:39.230Z,21.70
2017-11-26T19:46:08.416Z,21.70
2017-11-26T19:48:36.229Z,21.70
2017-11-26T19:51:04.180Z,21.70
2017-11-26T19:53:32.787Z,21.70
2017-11-26T19:56:00.670Z,21.70
2017-11-26T19:58:29.827Z,21.80
2017-11-26T20:00:58.478Z,21.90
2017-11-26T20:03:26.255Z,21.90
2017-11-26T20:05:54.109Z,21.90
2017-11-26T20:08:21.985Z,21.80
2017-11-26T20:10:49.779Z,21.80
2017-11-26T20:13:17.503Z,21.80
2017-11-26T20:15:45.311Z,21.70
2017-11-26T20:18:13.062Z,21.70
2017-11-26T20:20:40.836Z,21.60
2017-11-26T20:23:08.875Z,21.70
2017-11-26T20:25:37.227Z,21.60
2017-11-26T20:28:05.283Z,21.70
2017-11-26T20:30:33.126Z,21.70
2017-11-26T20:33:01.050Z,21.60
2017-11-26T20:35:29.222Z,21.60
2017-11-26T20:37:57.543Z,21.60
2017-11-26T20:40:25.606Z,21.60
2017-11-26T20:42:54.263Z,21.40
2017-11-26T20:45:21.994Z,21.40
2017-11-26T20:47:50.774Z,21.70
2017-11-26T20:50:18.710Z,21.60
2017-11-26T20:52:46.704Z,21.60
2017-11-26T20:55:14.713Z,21.70
2017-11-26T20:57:42.913Z,21.80
2017-11-26T21:00:12.148Z,21.80
2017-11-26T21:02:41.000Z,21.90
2017-11-26T21:05:09.749Z,21.80
2017-11-26T21:07:37.881Z,21.90
2017-11-26T21:10:05.672Z,21.90
2017-11-26T21:12:35.659Z,22.00
2017-11-26T21:15:03.695Z,22.00
2017-11-26T21:17:31.458Z,22.00
2017-11-26T21:19:59.196Z,22.10
2017-11-26T21:22:26.948Z,22.10
2017-11-26T21:24:54.855Z,22.10
2017-11-26T21:27:22.777Z,22.20
2017-11-26T21:29:53.171Z,22.20
2017-11-26T21:32:22.168Z,22.20
2017-11-26T21:34:50.040Z,22.10
2017-11-26T21:37:18.642Z,21.90
2017-11-26T21:39:46.442Z,21.80
2017-11-26T21:42:16.300Z,21.80
2017-11-26T21:44:44.964Z,21.90
2017-11-26T21:47:12.767Z,21.80
2017-11-26T21:49:40.589Z,22.00
2017-11-26T21:52:08.397Z,21.90
2017-11-26T21:54:36.967Z,21.30
2017-11-26T21:57:04.713Z,21.20
2017-11-26T21:59:33.487Z,21.30
2017-11-26T22:02:01.276Z,21.50
2017-11-26T22:04:29.867Z,21.30
2017-11-26T22:06:57.605Z,21.40
2017-11-26T22:09:25.358Z,21.20
2017-11-26T22:11:53.168Z,21.20
2017-11-26T22:14:21.041Z,21.30
2017-11-26T22:16:48.806Z,21.40
2017-11-26T22:19:16.643Z,21.40
2017-11-26T22:21:44.436Z,21.40
2017-11-26T22:24:12.259Z,21.40
2017-11-26T22:26:40.137Z,21.30
2017-11-26T22:29:07.939Z,21.30
2017-11-26T22:31:35.689Z,21.30
2017-11-26T22:34:03.497Z,21.30
2017-11-26T22:36:31.984Z,21.20
2017-11-26T22:38:59.724Z,21.20
2017-11-26T22:41:27.553Z,21.20
2017-11-26T22:43:55.280Z,21.10
2017-11-26T22:46:22.998Z,21.10
2017-11-26T22:48:50.857Z,20.80
2017-11-26T22:51:18.605Z,20.80
2017-11-26T22:53:46.333Z,20.70
2017-11-26T22:56:14.160Z,20.90
2017-11-26T22:58:41.930Z,20.90
2017-11-26T23:01:09.765Z,21.00
2017-11-26T23:03:37.552Z,21.00
2017-11-26T23:06:05.308Z,21.00
2017-11-26T23:08:33.108Z,21.00
2017-11-26T23:11:01.062Z,20.90
2017-11-26T23:13:28.869Z,20.90
2017-11-26T23:15:56.622Z,20.90
2017-11-26T23:18:24.404Z,20.90
2017-11-26T23:20:52.134Z,20.90
2017-11-26T23:23:19.934Z,20.80
2017-11-26T23:25:47.743Z,20.80
2017-11-26T23:28:15.526Z,20.80
2017-11-26T23:30:43.254Z,20.70
2017-11-26T23:33:10.978Z,20.70
2017-11-26T23:35:38.773Z,20.30
2017-11-26T23:38:06.562Z,20.00
2017-11-26T23:40:34.301Z,20.30
2017-11-26T23:43:02.133Z,20.40
2017-11-26T23:45:29.907Z,20.40
2017-11-26T23:47:57.794Z,20.50
2017-11-26T23:50:25.598Z,20.40
2017-11-26T23:52:53.887Z,20.50
2017-11-26T23:55:21.653Z,20.40
2017-11-26T23:57:49.468Z,20.40
